Arca — PDHT — position and weather

sailwx.info

Track history (hours):
 
Tides and Currents Weather Stations Pressure Air Temp Water Temp Dewpoint Dewpoint Depression Visibility Wind Speed Wind Dir Waves Ship Positions

Oceanographic research ship Arca (Netherlands)

Detailed information on ship capabilities available from University of Delaware's Ocean Information Center.

Last reported at 2016-Jul-31 08:32 UTC. Time now 2016-Jul-31 09:28 UTC.
Position N 52°06' E 004°16'.

Length 83 m; draft 5 m.

Type: Law enforcement. MMSI: 244454000.

Date/timePositionNaut miles runAvg speedWind from/ knotsBaromVisibWave heightAir tempDewpointWater temp
2016-Jul-31 08:32N 52°06' E 004°16'0 0.0
2016-Jul-31 07:20N 52°06' E 004°16'0 0.0
2016-Jul-31 06:32N 52°06' E 004°16'0 0.0
2016-Jul-31 05:32N 52°06' E 004°16'0 0.0
2016-Jul-31 04:32N 52°06' E 004°16'0 0.0
2016-Jul-31 03:32N 52°06' E 004°16'0 0.0
2016-Jul-31 02:29N 52°06' E 004°16'0 0.0
2016-Jul-31 01:29N 52°06' E 004°16'0 0.0
2016-Jul-31 00:32N 52°06' E 004°16'0 0.0
2016-Jul-30 22:29N 52°06' E 004°16'0 0.0
2016-Jul-30 21:32N 52°06' E 004°16'0 0.0
2016-Jul-30 20:29N 52°06' E 004°16'0 0.0
2016-Jul-30 19:32N 52°06' E 004°16'0 0.0
2016-Jul-30 18:32N 52°06' E 004°16'0 0.0
2016-Jul-30 17:29N 52°06' E 004°16'0 0.0
2016-Jul-30 16:32N 52°06' E 004°16'0 0.0
2016-Jul-30 15:23N 52°06' E 004°16'0 0.0
2016-Jul-30 14:32N 52°06' E 004°16'0 0.0
2016-Jul-30 13:23N 52°06' E 004°16'0 0.0
2016-Jul-30 12:26N 52°06' E 004°16'0 0.0
2016-Jul-30 11:32N 52°06' E 004°16'0 0.0
2016-Jul-30 10:32N 52°06' E 004°16'0 0.0
2016-Jul-30 09:32N 52°06' E 004°16'0 0.0
2016-Jul-30 08:23N 52°06' E 004°16'0 0.0
2016-Jul-30 07:29N 52°06' E 004°16'0 0.0
2016-Jul-30 06:29N 52°06' E 004°16'0 0.0
2016-Jul-30 04:32N 52°06' E 004°16'0 0.0
2016-Jul-30 03:29N 52°06' E 004°16'0 0.0
2016-Jul-30 02:32N 52°06' E 004°16'0 0.0
2016-Jul-30 01:32N 52°06' E 004°16'0 0.0
2016-Jul-30 00:26N 52°06' E 004°16'0 0.0
2016-Jul-29 23:32N 52°06' E 004°16'0 0.0
2016-Jul-29 22:32N 52°06' E 004°16'0 0.0
2016-Jul-29 21:32N 52°06' E 004°16'0 0.0
2016-Jul-29 20:20N 52°06' E 004°16'0 0.0
2016-Jul-29 19:29N 52°06' E 004°16'0 0.0
2016-Jul-29 18:32N 52°06' E 004°16'0 0.0
2016-Jul-29 17:23N 52°06' E 004°16'0 0.0
2016-Jul-29 16:32N 52°06' E 004°16'0 0.0
2016-Jul-29 15:32N 52°06' E 004°16'0 0.0
2016-Jul-29 14:32N 52°06' E 004°16'0 0.0
2016-Jul-29 13:29N 52°06' E 004°16'0 0.0
2016-Jul-29 12:29N 52°06' E 004°16'0 0.0
2016-Jul-29 11:29N 52°06' E 004°16'0 0.0
2016-Jul-29 10:29N 52°06' E 004°16'0 0.0
2016-Jul-29 09:32N 52°06' E 004°16'0 0.0
2016-Jul-29 08:29N 52°06' E 004°16'0 0.0
2016-Jul-29 07:33N 52°06' E 004°16'3 3.0
2016-Jul-29 06:33N 52°08' E 004°12'6 5.9
2016-Jul-29 05:33N 52°03' E 004°06'3 2.7
2016-Jul-29 04:33N 52°00' E 004°05'0 0.0
2016-Jul-29 03:33N 52°00' E 004°05'0 0.1
2016-Jul-29 02:33N 52°00' E 004°05'0 0.0
2016-Jul-29 01:33N 52°00' E 004°05'0 0.0
2016-Jul-29 00:33N 52°00' E 004°05'0 0.0
2016-Jul-28 23:33N 52°00' E 004°05'0 0.0
2016-Jul-28 22:33N 52°00' E 004°05'0 0.0
2016-Jul-28 21:33N 52°00' E 004°05'0 0.0
2016-Jul-28 20:33N 52°00' E 004°05'1111.4
2016-Jul-28 19:33N 51°55' E 003°49'2713.5
2016-Jul-28 17:33N 51°38' E 003°15'8 7.5
2016-Jul-28 16:32N 51°35' E 003°04'3 3.1
2016-Jul-28 15:33N 51°36' E 003°08'4 4.2
2016-Jul-28 14:32N 51°40' E 003°10'2 1.7
2016-Jul-28 13:33N 51°42' E 003°09'1 0.9
2016-Jul-28 12:14N 51°42' E 003°08'0 0.6
2016-Jul-28 11:33N 51°42' E 003°08'1 0.8
2016-Jul-28 10:30N 51°41' E 003°08'1 0.8
2016-Jul-28 09:29N 51°42' E 003°08'1 0.7
2016-Jul-28 08:31N 51°42' E 003°09'0 0.3
2016-Jul-28 07:30N 51°43' E 003°09'0 0.2
2016-Jul-28 06:30N 51°42' E 003°09'1 0.8
2016-Jul-28 05:30N 51°42' E 003°08'19 9.6
2016-Jul-28 03:33N 51°50' E 003°35'1313.5
2016-Jul-28 02:33N 51°57' E 003°54'9 9.2
2016-Jul-28 01:33N 52°03' E 004°06'2 1.8
2016-Jul-28 00:33N 52°02' E 004°04'1 1.0
2016-Jul-27 23:34N 52°01' E 004°05'3 2.7
2016-Jul-27 22:33N 52°04' E 004°05'1 0.8
2016-Jul-27 21:34N 52°03' E 004°06'0 0.2
2016-Jul-27 20:34N 52°03' E 004°06'0 0.3
2016-Jul-27 19:33N 52°03' E 004°06'0 0.1
2016-Jul-27 18:33N 52°03' E 004°05'1 0.8
2016-Jul-27 17:33N 52°02' E 004°06'0 0.4
2016-Jul-27 16:33N 52°03' E 004°05'1 0.8
2016-Jul-27 15:33N 52°04' E 004°05'1 1.3
2016-Jul-27 14:33N 52°02' E 004°06'0 0.5
2016-Jul-27 13:34N 52°03' E 004°05'0 0.4
2016-Jul-27 12:33N 52°02' E 004°05'0 0.3
2016-Jul-27 11:33N 52°03' E 004°05'1 0.9
2016-Jul-27 10:33N 52°02' E 004°05'1 0.8
2016-Jul-27 09:34N 52°01' E 004°05'0 0.3
2016-Jul-27 08:33N 52°01' E 004°06'1 1.0
2016-Jul-27 07:34N 52°02' E 004°05'1 0.8
2016-Jul-27 06:34N 52°03' E 004°05'1 1.0
2016-Jul-27 05:34N 52°04' E 004°05'1 1.4
2016-Jul-27 04:33N 52°02' E 004°05'2 1.7
2016-Jul-27 03:34N 52°01' E 004°05'1 0.7
2016-Jul-27 02:33N 52°02' E 004°05'1 1.4
2016-Jul-27 01:33N 52°03' E 004°05'1 0.6
2016-Jul-27 00:34N 52°03' E 004°04'1 1.5
2016-Jul-26 23:34N 52°02' E 004°05'1 1.5
2016-Jul-26 22:34N 52°00' E 004°05'2 2.0
2016-Jul-26 21:34N 52°02' E 004°04'2 1.6
2016-Jul-26 20:33N 52°01' E 004°05'1 0.5
2016-Jul-26 19:33N 52°01' E 004°05'1 1.2
2016-Jul-26 18:34N 52°02' E 004°04'1 1.1
2016-Jul-26 17:33N 52°03' E 004°04'2 1.7
2016-Jul-26 16:33N 52°02' E 004°04'1 1.5
2016-Jul-26 15:34N 52°00' E 004°05'0 0.0
2016-Jul-26 14:34N 52°00' E 004°05'2 1.5
2016-Jul-26 13:33N 52°02' E 004°04'2 1.6
2016-Jul-26 12:34N 52°03' E 004°04'0 0.2
2016-Jul-26 11:33N 52°03' E 004°03'1 0.6
2016-Jul-26 10:33N 52°03' E 004°04'2 1.7
2016-Jul-26 09:33N 52°01' E 004°04'0 0.2
2016-Jul-26 08:33N 52°01' E 004°05'1 1.5
2016-Jul-26 07:33N 52°03' E 004°04'0 0.3
2016-Jul-26 06:33N 52°02' E 004°04'2 1.9
2016-Jul-26 05:33N 52°01' E 004°04'0 0.2
2016-Jul-26 04:33N 52°01' E 004°04'1 1.4
2016-Jul-26 03:33N 52°02' E 004°03'1 1.0
2016-Jul-26 02:33N 52°03' E 004°03'2 2.0
2016-Jul-26 01:33N 52°01' E 004°04'1 0.9
2016-Jul-26 00:33N 52°00' E 004°04'0 0.2
2016-Jul-25 23:34N 51°60' E 004°04'2 1.7
2016-Jul-25 22:34N 52°02' E 004°03'1 1.3
2016-Jul-25 21:33N 52°03' E 004°03'2 2.0
2016-Jul-25 20:33N 52°01' E 004°04'0 0.5
2016-Jul-25 19:33N 52°00' E 004°04'2 1.8
2016-Jul-25 18:33N 52°02' E 004°03'1 0.6
2016-Jul-25 17:33N 52°03' E 004°03'2 1.7
2016-Jul-25 16:33N 52°01' E 004°04'1 0.6
2016-Jul-25 15:34N 52°01' E 004°04'1 0.5
2016-Jul-25 14:34N 52°00' E 004°04'1 1.0
2016-Jul-25 13:33N 52°01' E 004°03'7 6.9
2016-Jul-25 12:33N 52°06' E 004°10'2 2.2
2016-Jul-25 11:33N 52°07' E 004°13'2 1.4
2016-Jul-25 10:07N 52°06' E 004°16'0 0.0
2016-Jul-25 09:28N 52°06' E 004°16'0 0.0
2016-Jul-25 08:25N 52°06' E 004°16'0 0.0
2016-Jul-25 07:31N 52°06' E 004°16'0 0.0
2016-Jul-25 06:31N 52°06' E 004°16'0 0.0
2016-Jul-25 04:31N 52°06' E 004°16'0 0.0
2016-Jul-25 03:31N 52°06' E 004°16'0 0.0
2016-Jul-25 02:28N 52°06' E 004°16'0 0.0
2016-Jul-25 01:31N 52°06' E 004°16'0 0.0
2016-Jul-25 00:31N 52°06' E 004°16'0 0.0
2016-Jul-24 23:13N 52°06' E 004°16'0 0.0
2016-Jul-24 22:31N 52°06' E 004°16'0 0.0
2016-Jul-24 21:28N 52°06' E 004°16'0 0.0
2016-Jul-24 20:16N 52°06' E 004°16'0 0.0
2016-Jul-24 19:28N 52°06' E 004°16'0 0.0
2016-Jul-24 17:13N 52°06' E 004°16'0 0.0
2016-Jul-24 16:31N 52°06' E 004°16'0 0.0
2016-Jul-24 15:25N 52°06' E 004°16'0 0.0
2016-Jul-24 14:25N 52°06' E 004°16'0 0.0
2016-Jul-24 13:19N 52°06' E 004°16'0 0.0
2016-Jul-24 12:31N 52°06' E 004°16'0 0.0
2016-Jul-24 11:19N 52°06' E 004°16'0 0.0
2016-Jul-24 10:31N 52°06' E 004°16'0 0.0
2016-Jul-24 09:28N 52°06' E 004°16'0 0.0
2016-Jul-24 08:31N 52°06' E 004°16'0 0.0
2016-Jul-24 07:25N 52°06' E 004°16'0 0.0
2016-Jul-24 06:31N 52°06' E 004°16'0 0.0
2016-Jul-24 05:25N 52°06' E 004°16'0 0.0
2016-Jul-24 04:19N 52°06' E 004°16'0 0.0
2016-Jul-24 03:25N 52°06' E 004°16'0 0.0
2016-Jul-24 02:28N 52°06' E 004°16'0 0.0
2016-Jul-24 01:25N 52°06' E 004°16'0 0.0
2016-Jul-24 00:31N 52°06' E 004°16'0 0.0
2016-Jul-23 23:25N 52°06' E 004°16'0 0.0
2016-Jul-23 22:19N 52°06' E 004°16'0 0.0
2016-Jul-23 21:34N 52°06' E 004°16'0 0.0
2016-Jul-23 20:31N 52°06' E 004°16'0 0.0
2016-Jul-23 19:25N 52°06' E 004°16'0 0.0
2016-Jul-23 18:04N 52°06' E 004°16'0 0.0
2016-Jul-23 17:31N 52°06' E 004°16'0 0.0
2016-Jul-23 16:10N 52°06' E 004°16'0 0.0
2016-Jul-23 15:31N 52°06' E 004°16'0 0.0
2016-Jul-23 13:25N 52°06' E 004°16'0 0.0
2016-Jul-23 12:19N 52°06' E 004°16'0 0.0
2016-Jul-23 11:25N 52°06' E 004°16'0 0.0
2016-Jul-23 10:31N 52°06' E 004°16'0 0.0
2016-Jul-23 09:31N 52°06' E 004°16'0 0.0
2016-Jul-23 08:31N 52°06' E 004°16'0 0.0
2016-Jul-23 07:28N 52°06' E 004°16'0 0.0
2016-Jul-23 06:22N 52°06' E 004°16'0 0.0
2016-Jul-23 04:29N 52°06' E 004°16'0 0.0
2016-Jul-23 03:29N 52°06' E 004°16'0 0.0
2016-Jul-23 02:23N 52°06' E 004°16'0 0.0
2016-Jul-23 01:29N 52°06' E 004°16'0 0.0
2016-Jul-23 00:26N 52°06' E 004°16'0 0.0
2016-Jul-22 23:32N 52°06' E 004°16'0 0.0
2016-Jul-22 22:29N 52°06' E 004°16'0 0.0
2016-Jul-22 21:29N 52°06' E 004°16'0 0.0
2016-Jul-22 20:32N 52°06' E 004°16'0 0.0
2016-Jul-22 19:32N 52°06' E 004°16'0 0.0
2016-Jul-22 17:14N 52°06' E 004°16'0 0.0
2016-Jul-22 16:11N 52°06' E 004°16'0 0.0
2016-Jul-22 15:32N 52°06' E 004°16'0 0.0
2016-Jul-22 14:26N 52°06' E 004°16'0 0.0
2016-Jul-22 13:23N 52°06' E 004°16'0 0.0
2016-Jul-22 12:32N 52°06' E 004°16'0 0.0
2016-Jul-22 10:17N 52°06' E 004°16'0 0.0
2016-Jul-22 09:32N 52°06' E 004°16'0 0.0
2016-Jul-22 08:29N 52°06' E 004°16'2 1.7
2016-Jul-22 07:34N 52°07' E 004°14'10 5.1
2016-Jul-22 05:33N 51°57' E 004°09'7 6.5
2016-Jul-22 04:33N 51°60' E 003°59'6 6.3
2016-Jul-22 03:33N 51°56' E 003°51'5 5.1
2016-Jul-22 02:30N 51°53' E 003°44'5 4.8
2016-Jul-22 01:29N 51°50' E 003°37'4 3.8
2016-Jul-22 00:30N 51°48' E 003°32'3 3.0
2016-Jul-21 23:33N 51°47' E 003°28'4 4.2
2016-Jul-21 22:31N 51°44' E 003°22'6 6.3
2016-Jul-21 21:31N 51°41' E 003°13'4 4.1
2016-Jul-21 20:29N 51°39' E 003°07'2 2.0
2016-Jul-21 19:31N 51°41' E 003°08'0 0.2
2016-Jul-21 18:33N 51°41' E 003°08'3 3.0
2016-Jul-21 17:32N 51°38' E 003°07'0 0.4
2016-Jul-21 16:33N 51°39' E 003°07'6 5.7
2016-Jul-21 15:32N 51°34' E 003°03'0 0.1
2016-Jul-21 14:33N 51°33' E 003°03'1 0.8
2016-Jul-21 13:32N 51°34' E 003°04'1 0.8
2016-Jul-21 12:33N 51°33' E 003°04'2 2.3
2016-Jul-21 11:33N 51°35' E 003°05'2 2.0
2016-Jul-21 10:32N 51°33' E 003°04'1 1.5
2016-Jul-21 09:33N 51°35' E 003°05'  
Track history (hours):
 
Tides and Currents Weather Stations Pressure Air Temp Water Temp Dewpoint Dewpoint Depression Visibility Wind Speed Wind Dir Waves Ship Positions

Oceanographic research ship Arca (Netherlands)

Detailed information on ship capabilities available from University of Delaware's Ocean Information Center.

Last reported at 2016-Jul-31 08:32 UTC. Time now 2016-Jul-31 09:28 UTC.
Position N 52°06' E 004°16'.

Length 83 m; draft 5 m.

Type: Law enforcement. MMSI: 244454000.

Date/timePositionNaut miles runAvg speedWind from/ knotsBaromVisibWave heightAir tempDewpointWater temp
2016-Jul-31 08:32N 52°06' E 004°16'0 0.0
2016-Jul-31 07:20N 52°06' E 004°16'0 0.0
2016-Jul-31 06:32N 52°06' E 004°16'0 0.0
2016-Jul-31 05:32N 52°06' E 004°16'0 0.0
2016-Jul-31 04:32N 52°06' E 004°16'0 0.0
2016-Jul-31 03:32N 52°06' E 004°16'0 0.0
2016-Jul-31 02:29N 52°06' E 004°16'0 0.0
2016-Jul-31 01:29N 52°06' E 004°16'0 0.0
2016-Jul-31 00:32N 52°06' E 004°16'0 0.0
2016-Jul-30 22:29N 52°06' E 004°16'0 0.0
2016-Jul-30 21:32N 52°06' E 004°16'0 0.0
2016-Jul-30 20:29N 52°06' E 004°16'0 0.0
2016-Jul-30 19:32N 52°06' E 004°16'0 0.0
2016-Jul-30 18:32N 52°06' E 004°16'0 0.0
2016-Jul-30 17:29N 52°06' E 004°16'0 0.0
2016-Jul-30 16:32N 52°06' E 004°16'0 0.0
2016-Jul-30 15:23N 52°06' E 004°16'0 0.0
2016-Jul-30 14:32N 52°06' E 004°16'0 0.0
2016-Jul-30 13:23N 52°06' E 004°16'0 0.0
2016-Jul-30 12:26N 52°06' E 004°16'0 0.0
2016-Jul-30 11:32N 52°06' E 004°16'0 0.0
2016-Jul-30 10:32N 52°06' E 004°16'0 0.0
2016-Jul-30 09:32N 52°06' E 004°16'0 0.0
2016-Jul-30 08:23N 52°06' E 004°16'0 0.0
2016-Jul-30 07:29N 52°06' E 004°16'0 0.0
2016-Jul-30 06:29N 52°06' E 004°16'0 0.0
2016-Jul-30 04:32N 52°06' E 004°16'0 0.0
2016-Jul-30 03:29N 52°06' E 004°16'0 0.0
2016-Jul-30 02:32N 52°06' E 004°16'0 0.0
2016-Jul-30 01:32N 52°06' E 004°16'0 0.0
2016-Jul-30 00:26N 52°06' E 004°16'0 0.0
2016-Jul-29 23:32N 52°06' E 004°16'0 0.0
2016-Jul-29 22:32N 52°06' E 004°16'0 0.0
2016-Jul-29 21:32N 52°06' E 004°16'0 0.0
2016-Jul-29 20:20N 52°06' E 004°16'0 0.0
2016-Jul-29 19:29N 52°06' E 004°16'0 0.0
2016-Jul-29 18:32N 52°06' E 004°16'0 0.0
2016-Jul-29 17:23N 52°06' E 004°16'0 0.0
2016-Jul-29 16:32N 52°06' E 004°16'0 0.0
2016-Jul-29 15:32N 52°06' E 004°16'0 0.0
2016-Jul-29 14:32N 52°06' E 004°16'0 0.0
2016-Jul-29 13:29N 52°06' E 004°16'0 0.0
2016-Jul-29 12:29N 52°06' E 004°16'0 0.0
2016-Jul-29 11:29N 52°06' E 004°16'0 0.0
2016-Jul-29 10:29N 52°06' E 004°16'0 0.0
2016-Jul-29 09:32N 52°06' E 004°16'0 0.0
2016-Jul-29 08:29N 52°06' E 004°16'0 0.0
2016-Jul-29 07:33N 52°06' E 004°16'3 3.0
2016-Jul-29 06:33N 52°08' E 004°12'6 5.9
2016-Jul-29 05:33N 52°03' E 004°06'3 2.7
2016-Jul-29 04:33N 52°00' E 004°05'0 0.0
2016-Jul-29 03:33N 52°00' E 004°05'0 0.1
2016-Jul-29 02:33N 52°00' E 004°05'0 0.0
2016-Jul-29 01:33N 52°00' E 004°05'0 0.0
2016-Jul-29 00:33N 52°00' E 004°05'0 0.0
2016-Jul-28 23:33N 52°00' E 004°05'0 0.0
2016-Jul-28 22:33N 52°00' E 004°05'0 0.0
2016-Jul-28 21:33N 52°00' E 004°05'0 0.0
2016-Jul-28 20:33N 52°00' E 004°05'1111.4
2016-Jul-28 19:33N 51°55' E 003°49'2713.5
2016-Jul-28 17:33N 51°38' E 003°15'8 7.5
2016-Jul-28 16:32N 51°35' E 003°04'3 3.1
2016-Jul-28 15:33N 51°36' E 003°08'4 4.2
2016-Jul-28 14:32N 51°40' E 003°10'2 1.7
2016-Jul-28 13:33N 51°42' E 003°09'1 0.9
2016-Jul-28 12:14N 51°42' E 003°08'0 0.6
2016-Jul-28 11:33N 51°42' E 003°08'1 0.8
2016-Jul-28 10:30N 51°41' E 003°08'1 0.8
2016-Jul-28 09:29N 51°42' E 003°08'1 0.7
2016-Jul-28 08:31N 51°42' E 003°09'0 0.3
2016-Jul-28 07:30N 51°43' E 003°09'0 0.2
2016-Jul-28 06:30N 51°42' E 003°09'1 0.8
2016-Jul-28 05:30N 51°42' E 003°08'19 9.6
2016-Jul-28 03:33N 51°50' E 003°35'1313.5
2016-Jul-28 02:33N 51°57' E 003°54'9 9.2
2016-Jul-28 01:33N 52°03' E 004°06'2 1.8
2016-Jul-28 00:33N 52°02' E 004°04'1 1.0
2016-Jul-27 23:34N 52°01' E 004°05'3 2.7
2016-Jul-27 22:33N 52°04' E 004°05'1 0.8
2016-Jul-27 21:34N 52°03' E 004°06'0 0.2
2016-Jul-27 20:34N 52°03' E 004°06'0 0.3
2016-Jul-27 19:33N 52°03' E 004°06'0 0.1
2016-Jul-27 18:33N 52°03' E 004°05'1 0.8
2016-Jul-27 17:33N 52°02' E 004°06'0 0.4
2016-Jul-27 16:33N 52°03' E 004°05'1 0.8
2016-Jul-27 15:33N 52°04' E 004°05'1 1.3
2016-Jul-27 14:33N 52°02' E 004°06'0 0.5
2016-Jul-27 13:34N 52°03' E 004°05'0 0.4
2016-Jul-27 12:33N 52°02' E 004°05'0 0.3
2016-Jul-27 11:33N 52°03' E 004°05'1 0.9
2016-Jul-27 10:33N 52°02' E 004°05'1 0.8
2016-Jul-27 09:34N 52°01' E 004°05'0 0.3
2016-Jul-27 08:33N 52°01' E 004°06'1 1.0
2016-Jul-27 07:34N 52°02' E 004°05'1 0.8
2016-Jul-27 06:34N 52°03' E 004°05'1 1.0
2016-Jul-27 05:34N 52°04' E 004°05'1 1.4
2016-Jul-27 04:33N 52°02' E 004°05'2 1.7
2016-Jul-27 03:34N 52°01' E 004°05'1 0.7
2016-Jul-27 02:33N 52°02' E 004°05'1 1.4
2016-Jul-27 01:33N 52°03' E 004°05'1 0.6
2016-Jul-27 00:34N 52°03' E 004°04'1 1.5
2016-Jul-26 23:34N 52°02' E 004°05'1 1.5
2016-Jul-26 22:34N 52°00' E 004°05'2 2.0
2016-Jul-26 21:34N 52°02' E 004°04'2 1.6
2016-Jul-26 20:33N 52°01' E 004°05'1 0.5
2016-Jul-26 19:33N 52°01' E 004°05'1 1.2
2016-Jul-26 18:34N 52°02' E 004°04'1 1.1
2016-Jul-26 17:33N 52°03' E 004°04'2 1.7
2016-Jul-26 16:33N 52°02' E 004°04'1 1.5
2016-Jul-26 15:34N 52°00' E 004°05'0 0.0
2016-Jul-26 14:34N 52°00' E 004°05'2 1.5
2016-Jul-26 13:33N 52°02' E 004°04'2 1.6
2016-Jul-26 12:34N 52°03' E 004°04'0 0.2
2016-Jul-26 11:33N 52°03' E 004°03'1 0.6
2016-Jul-26 10:33N 52°03' E 004°04'2 1.7
2016-Jul-26 09:33N 52°01' E 004°04'0 0.2
2016-Jul-26 08:33N 52°01' E 004°05'1 1.5
2016-Jul-26 07:33N 52°03' E 004°04'0 0.3
2016-Jul-26 06:33N 52°02' E 004°04'2 1.9
2016-Jul-26 05:33N 52°01' E 004°04'0 0.2
2016-Jul-26 04:33N 52°01' E 004°04'1 1.4
2016-Jul-26 03:33N 52°02' E 004°03'1 1.0
2016-Jul-26 02:33N 52°03' E 004°03'2 2.0
2016-Jul-26 01:33N 52°01' E 004°04'1 0.9
2016-Jul-26 00:33N 52°00' E 004°04'0 0.2
2016-Jul-25 23:34N 51°60' E 004°04'2 1.7
2016-Jul-25 22:34N 52°02' E 004°03'1 1.3
2016-Jul-25 21:33N 52°03' E 004°03'2 2.0
2016-Jul-25 20:33N 52°01' E 004°04'0 0.5
2016-Jul-25 19:33N 52°00' E 004°04'2 1.8
2016-Jul-25 18:33N 52°02' E 004°03'1 0.6
2016-Jul-25 17:33N 52°03' E 004°03'2 1.7
2016-Jul-25 16:33N 52°01' E 004°04'1 0.6
2016-Jul-25 15:34N 52°01' E 004°04'1 0.5
2016-Jul-25 14:34N 52°00' E 004°04'1 1.0
2016-Jul-25 13:33N 52°01' E 004°03'7 6.9
2016-Jul-25 12:33N 52°06' E 004°10'2 2.2
2016-Jul-25 11:33N 52°07' E 004°13'2 1.4
2016-Jul-25 10:07N 52°06' E 004°16'0 0.0
2016-Jul-25 09:28N 52°06' E 004°16'0 0.0
2016-Jul-25 08:25N 52°06' E 004°16'0 0.0
2016-Jul-25 07:31N 52°06' E 004°16'0 0.0
2016-Jul-25 06:31N 52°06' E 004°16'0 0.0
2016-Jul-25 04:31N 52°06' E 004°16'0 0.0
2016-Jul-25 03:31N 52°06' E 004°16'0 0.0
2016-Jul-25 02:28N 52°06' E 004°16'0 0.0
2016-Jul-25 01:31N 52°06' E 004°16'0 0.0
2016-Jul-25 00:31N 52°06' E 004°16'0 0.0
2016-Jul-24 23:13N 52°06' E 004°16'0 0.0
2016-Jul-24 22:31N 52°06' E 004°16'0 0.0
2016-Jul-24 21:28N 52°06' E 004°16'0 0.0
2016-Jul-24 20:16N 52°06' E 004°16'0 0.0
2016-Jul-24 19:28N 52°06' E 004°16'0 0.0
2016-Jul-24 17:13N 52°06' E 004°16'0 0.0
2016-Jul-24 16:31N 52°06' E 004°16'0 0.0
2016-Jul-24 15:25N 52°06' E 004°16'0 0.0
2016-Jul-24 14:25N 52°06' E 004°16'0 0.0
2016-Jul-24 13:19N 52°06' E 004°16'0 0.0
2016-Jul-24 12:31N 52°06' E 004°16'0 0.0
2016-Jul-24 11:19N 52°06' E 004°16'0 0.0
2016-Jul-24 10:31N 52°06' E 004°16'0 0.0
2016-Jul-24 09:28N 52°06' E 004°16'0 0.0
2016-Jul-24 08:31N 52°06' E 004°16'0 0.0
2016-Jul-24 07:25N 52°06' E 004°16'0 0.0
2016-Jul-24 06:31N 52°06' E 004°16'0 0.0
2016-Jul-24 05:25N 52°06' E 004°16'0 0.0
2016-Jul-24 04:19N 52°06' E 004°16'0 0.0
2016-Jul-24 03:25N 52°06' E 004°16'0 0.0
2016-Jul-24 02:28N 52°06' E 004°16'0 0.0
2016-Jul-24 01:25N 52°06' E 004°16'0 0.0
2016-Jul-24 00:31N 52°06' E 004°16'0 0.0
2016-Jul-23 23:25N 52°06' E 004°16'0 0.0
2016-Jul-23 22:19N 52°06' E 004°16'0 0.0
2016-Jul-23 21:34N 52°06' E 004°16'0 0.0
2016-Jul-23 20:31N 52°06' E 004°16'0 0.0
2016-Jul-23 19:25N 52°06' E 004°16'0 0.0
2016-Jul-23 18:04N 52°06' E 004°16'0 0.0
2016-Jul-23 17:31N 52°06' E 004°16'0 0.0
2016-Jul-23 16:10N 52°06' E 004°16'0 0.0
2016-Jul-23 15:31N 52°06' E 004°16'0 0.0
2016-Jul-23 13:25N 52°06' E 004°16'0 0.0
2016-Jul-23 12:19N 52°06' E 004°16'0 0.0
2016-Jul-23 11:25N 52°06' E 004°16'0 0.0
2016-Jul-23 10:31N 52°06' E 004°16'0 0.0
2016-Jul-23 09:31N 52°06' E 004°16'0 0.0
2016-Jul-23 08:31N 52°06' E 004°16'0 0.0
2016-Jul-23 07:28N 52°06' E 004°16'0 0.0
2016-Jul-23 06:22N 52°06' E 004°16'0 0.0
2016-Jul-23 04:29N 52°06' E 004°16'0 0.0
2016-Jul-23 03:29N 52°06' E 004°16'0 0.0
2016-Jul-23 02:23N 52°06' E 004°16'0 0.0
2016-Jul-23 01:29N 52°06' E 004°16'0 0.0
2016-Jul-23 00:26N 52°06' E 004°16'0 0.0
2016-Jul-22 23:32N 52°06' E 004°16'0 0.0
2016-Jul-22 22:29N 52°06' E 004°16'0 0.0
2016-Jul-22 21:29N 52°06' E 004°16'0 0.0
2016-Jul-22 20:32N 52°06' E 004°16'0 0.0
2016-Jul-22 19:32N 52°06' E 004°16'0 0.0
2016-Jul-22 17:14N 52°06' E 004°16'0 0.0
2016-Jul-22 16:11N 52°06' E 004°16'0 0.0
2016-Jul-22 15:32N 52°06' E 004°16'0 0.0
2016-Jul-22 14:26N 52°06' E 004°16'0 0.0
2016-Jul-22 13:23N 52°06' E 004°16'0 0.0
2016-Jul-22 12:32N 52°06' E 004°16'0 0.0
2016-Jul-22 10:17N 52°06' E 004°16'0 0.0
2016-Jul-22 09:32N 52°06' E 004°16'0 0.0
2016-Jul-22 08:29N 52°06' E 004°16'2 1.7
2016-Jul-22 07:34N 52°07' E 004°14'10 5.1
2016-Jul-22 05:33N 51°57' E 004°09'7 6.5
2016-Jul-22 04:33N 51°60' E 003°59'6 6.3
2016-Jul-22 03:33N 51°56' E 003°51'5 5.1
2016-Jul-22 02:30N 51°53' E 003°44'5 4.8
2016-Jul-22 01:29N 51°50' E 003°37'4 3.8
2016-Jul-22 00:30N 51°48' E 003°32'3 3.0
2016-Jul-21 23:33N 51°47' E 003°28'4 4.2
2016-Jul-21 22:31N 51°44' E 003°22'6 6.3
2016-Jul-21 21:31N 51°41' E 003°13'4 4.1
2016-Jul-21 20:29N 51°39' E 003°07'2 2.0
2016-Jul-21 19:31N 51°41' E 003°08'0 0.2
2016-Jul-21 18:33N 51°41' E 003°08'3 3.0
2016-Jul-21 17:32N 51°38' E 003°07'0 0.4
2016-Jul-21 16:33N 51°39' E 003°07'6 5.7
2016-Jul-21 15:32N 51°34' E 003°03'0 0.1
2016-Jul-21 14:33N 51°33' E 003°03'1 0.8
2016-Jul-21 13:32N 51°34' E 003°04'1 0.8
2016-Jul-21 12:33N 51°33' E 003°04'2 2.3
2016-Jul-21 11:33N 51°35' E 003°05'2 2.0
2016-Jul-21 10:32N 51°33' E 003°04'1 1.5
2016-Jul-21 09:33N 51°35' E 003°05'  

Dump ship's entire track history